Map

Track Data

SID SEASON NUMBER BASIN SUBBASIN NAME ISO_TIME NATURE LAT LON WMO_WIND WMO_PRES WMO_AGENCY TRACK_TYPE DIST2LAND LANDFALL IFLAG USA_AGENCY USA_ATCF_ID USA_LAT USA_LON USA_RECORD USA_STATUS USA_WIND USA_PRES USA_SSHS USA_R34_NE USA_R34_SE USA_R34_SW USA_R34_NW USA_R50_NE USA_R50_SE USA_R50_SW USA_R50_NW USA_R64_NE USA_R64_SE USA_R64_SW USA_R64_NW USA_POCI USA_ROCI USA_RMW USA_EYE TOKYO_LAT TOKYO_LON TOKYO_GRADE TOKYO_WIND TOKYO_PRES TOKYO_R50_DIR TOKYO_R50_LONG TOKYO_R50_SHORT TOKYO_R30_DIR TOKYO_R30_LONG TOKYO_R30_SHORT TOKYO_LAND CMA_LAT CMA_LON CMA_CAT CMA_WIND CMA_PRES HKO_LAT HKO_LON HKO_CAT HKO_WIND HKO_PRES NEWDELHI_LAT NEWDELHI_LON NEWDELHI_GRADE NEWDELHI_WIND NEWDELHI_PRES NEWDELHI_CI NEWDELHI_DP NEWDELHI_POCI REUNION_LAT REUNION_LON REUNION_TYPE REUNION_WIND REUNION_PRES REUNION_TNUM REUNION_CI REUNION_RMW REUNION_R34_NE REUNION_R34_SE REUNION_R34_SW REUNION_R34_NW REUNION_R50_NE REUNION_R50_SE REUNION_R50_SW REUNION_R50_NW REUNION_R64_NE REUNION_R64_SE REUNION_R64_SW REUNION_R64_NW BOM_LAT BOM_LON BOM_TYPE BOM_WIND BOM_PRES BOM_TNUM BOM_CI BOM_RMW BOM_R34_NE BOM_R34_SE BOM_R34_SW BOM_R34_NW BOM_R50_NE BOM_R50_SE BOM_R50_SW BOM_R50_NW BOM_R64_NE BOM_R64_SE BOM_R64_SW BOM_R64_NW BOM_ROCI BOM_POCI BOM_EYE BOM_POS_METHOD BOM_PRES_METHOD NADI_LAT NADI_LON NADI_CAT NADI_WIND NADI_PRES WELLINGTON_LAT WELLINGTON_LON WELLINGTON_WIND WELLINGTON_PRES DS824_LAT DS824_LON DS824_STAGE DS824_WIND DS824_PRES TD9636_LAT TD9636_LON TD9636_STAGE TD9636_WIND TD9636_PRES TD9635_LAT TD9635_LON TD9635_WIND TD9635_PRES TD9635_ROCI NEUMANN_LAT NEUMANN_LON NEUMANN_CLASS NEUMANN_WIND NEUMANN_PRES MLC_LAT MLC_LON MLC_CLASS MLC_WIND MLC_PRES USA_GUST BOM_GUST BOM_GUST_PER REUNION_GUST REUNION_GUST_PER USA_SEAHGT USA_SEARAD_NE USA_SEARAD_SE USA_SEARAD_SW USA_SEARAD_NW STORM_SPEED STORM_DIR
1926312N06072 1926 57 NI AS NOT_NAMED 1926-11-08 00:00:00 TS 5.60000 72.0000 main 619 619 _________O____ -1 5.60000 72.0000 TC 30 6 264
1926312N06072 1926 57 NI AS NOT_NAMED 1926-11-08 03:00:00 TS 5.56838 71.6983 main 646 646 _________PO___ -1 5.55258 71.5475 TC 30 5.60000 72.0000 1 7 263
1926312N06072 1926 57 NI AS NOT_NAMED 1926-11-08 06:00:00 TS 5.51568 71.2881 main 688 688 _________OP___ -1 5.50000 71.1000 TC 30 5.53920 71.5702 1 8 263
1926312N06072 1926 57 NI AS NOT_NAMED 1926-11-08 09:00:00 TS 5.45966 70.8610 main 726 726 _________PP___ -1 5.44245 70.6575 TC 30 5.48261 71.1324 1 9 263
1926312N06072 1926 57 NI AS NOT_NAMED 1926-11-08 12:00:00 TS 5.41736 70.4392 main 779 779 _________OP___ -1 5.40000 70.2000 TC 30 5.43472 70.6784 1 9 266
1926312N06072 1926 57 NI AS NOT_NAMED 1926-11-08 15:00:00 TS 5.39249 69.9537 main 817 817 _________PO___ -1 5.38498 69.7075 TC 30 5.40000 70.2000 1 10 269
1926312N06072 1926 57 NI AS NOT_NAMED 1926-11-08 18:00:00 TS 5.39158 69.4470 main 876 876 _________OP___ -1 5.40000 69.2000 TC 30 5.38317 69.6941 1 10 271
1926312N06072 1926 57 NI AS NOT_NAMED 1926-11-08 21:00:00 TS 5.40878 68.9312 main 926 926 _________PP___ -1 5.42749 68.6850 TC 30 5.39008 69.1775 1 10 274
1926312N06072 1926 57 NI AS NOT_NAMED 1926-11-09 00:00:00 TS 5.46347 68.4361 main 972 972 _________OP___ -1 5.50000 68.2000 TC 30 5.42693 68.6721 1 10 280
1926312N06072 1926 57 NI AS NOT_NAMED 1926-11-09 03:00:00 TS 5.56748 67.9888 main 1008 1008 _________PO___ -1 5.63495 67.7775 TC 30 5.50000 68.2000 1 9 286
1926312N06072 1926 57 NI AS NOT_NAMED 1926-11-09 06:00:00 TS 5.70894 67.5986 main 1045 1045 _________OP___ -1 5.80000 67.4000 TC 30 5.61789 67.7972 1 8 291
1926312N06072 1926 57 NI AS NOT_NAMED 1926-11-09 09:00:00 TS 5.85981 67.2388 main 1077 1077 _________PP___ -1 5.94995 67.0500 TC 30 5.76968 67.4276 1 8 294
1926312N06072 1926 57 NI AS NOT_NAMED 1926-11-09 12:00:00 TS 6.01832 66.8845 main 1104 1104 _________OP___ -1 6.10000 66.7000 TC 30 5.93665 67.0691 1 8 294
1926312N06072 1926 57 NI AS NOT_NAMED 1926-11-09 15:00:00 TS 6.17873 66.5075 main 1138 1138 _________PO___ -1 6.25747 66.3150 TC 30 6.10000 66.7000 1 9 291
1926312N06072 1926 57 NI AS NOT_NAMED 1926-11-09 18:00:00 TS 6.32426 66.0805 main 1176 1176 _________OP___ -1 6.40000 65.9000 TC 30 6.24853 66.2610 1 9 287
1926312N06072 1926 57 NI AS NOT_NAMED 1926-11-09 21:00:00 TS 6.45135 65.6201 main 1220 1220 _________PP___ -1 6.51505 65.4275 TC 30 6.38765 65.8126 1 9 285
1926312N06072 1926 57 NI AS NOT_NAMED 1926-11-10 00:00:00 TS 6.55396 65.1915 main 1253 1253 _________OP___ -1 6.60000 65.0000 TC 30 6.50792 65.3829 1 8 283
1926312N06072 1926 57 NI AS NOT_NAMED 1926-11-10 03:00:00 TS 6.63246 64.8600 main 1282 1282 _________PO___ -1 6.66493 64.7200 TC 30 6.60000 65.0000 1 6 282
1926312N06072 1926 57 NI AS NOT_NAMED 1926-11-10 06:00:00 TS 6.67880 64.5998 main 1289 1270 _________OP___ -1 6.70000 64.5000 TC 30 6.65761 64.6996 1 5 277
1926312N06072 1926 57 NI AS NOT_NAMED 1926-11-10 09:00:00 TS 6.69737 64.3487 main 1261 1242 _________PP___ -1 6.70749 64.2500 TC 30 6.68725 64.4474 1 5 272
1926312N06072 1926 57 NI AS NOT_NAMED 1926-11-10 12:00:00 TS 6.69914 64.1107 main 1242 1224 _________OP___ -1 6.70000 64.0000 TC 30 6.69828 64.2215 1 5 270
1926312N06072 1926 57 NI AS NOT_NAMED 1926-11-10 15:00:00 TS 6.69999 63.8750 main 1224 1196 _________PO___ -1 6.69999 63.7500 TC 30 6.70000 64.0000 1 5 271
1926312N06072 1926 57 NI AS NOT_NAMED 1926-11-10 18:00:00 TS 6.70354 63.6331 main 1196 1178 _________OP___ -1 6.70000 63.5000 TC 30 6.70708 63.7662 1 5 270
1926312N06072 1926 57 NI AS NOT_NAMED 1926-11-10 21:00:00 TS 6.70365 63.3975 main 1178 1160 _________PP___ -1 6.69996 63.2650 TC 30 6.70735 63.5300 1 5 270
1926312N06072 1926 57 NI AS NOT_NAMED 1926-11-11 00:00:00 TS 6.70197 63.1394 main 1151 1133 _________OP___ -1 6.70000 63.0000 TC 30 6.70394 63.2787 1 6 270
1926312N06072 1926 57 NI AS NOT_NAMED 1926-11-11 03:00:00 TS 6.70000 62.8325 main 1124 1098 _________PO___ -1 6.70000 62.6650 TC 30 6.70000 63.0000 1 6 270
1926312N06072 1926 57 NI AS NOT_NAMED 1926-11-11 06:00:00 TS 6.69999 62.4934 main 1098 1072 _________OP___ -1 6.70000 62.3000 TC 30 6.69997 62.6869 1 7 270
1926312N06072 1926 57 NI AS NOT_NAMED 1926-11-11 09:00:00 TS 6.69995 62.1512 main 1072 1038 _________PP___ -1 6.69996 61.9575 TC 30 6.69995 62.3450 1 7 270
1926312N06072 1926 57 NI AS NOT_NAMED 1926-11-11 12:00:00 TS 6.69997 61.7903 main 1038 1004 _________OP___ -1 6.70000 61.6000 TC 30 6.69994 61.9806 1 7 270
1926312N06072 1926 57 NI AS NOT_NAMED 1926-11-11 15:00:00 TS 6.69999 61.4037 main 1004 972 _________PO___ -1 6.69999 61.2075 TC 30 6.70000 61.6000 1 8 270
1926312N06072 1926 57 NI AS NOT_NAMED 1926-11-11 18:00:00 TS 6.69587 61.0153 main 972 948 _________OP___ -1 6.70000 60.8000 TC 30 6.69173 61.2305 1 8 269
1926312N06072 1926 57 NI AS NOT_NAMED 1926-11-11 21:00:00 TS 6.68860 60.6299 main 940 909 _________PP___ -1 6.69243 60.4150 TC 30 6.68478 60.8449 1 8 270
1926312N06072 1926 57 NI AS NOT_NAMED 1926-11-12 00:00:00 TS 6.69272 60.2184 main 909 880 _________OP___ -1 6.70000 60.0000 TC 30 6.68544 60.4368 1 9 272
1926312N06072 1926 57 NI AS NOT_NAMED 1926-11-12 03:00:00 TS 6.72125 59.7575 main 880 836 _________PO___ -1 6.74249 59.5150 TC 38 6.70000 60.0000 1 9 274
1926312N06072 1926 57 NI AS NOT_NAMED 1926-11-12 06:00:00 TS 6.75559 59.2683 main 836 802 _________OP___ -1 6.80000 59.0000 TC 47 6.71117 59.5367 1 10 274
1926312N06072 1926 57 NI AS NOT_NAMED 1926-11-12 09:00:00 TS 6.79114 58.7798 main 802 771 _________PP___ -1 6.84240 58.5150 TC 55 6.73987 59.0447 1 10 275
1926312N06072 1926 57 NI AS NOT_NAMED 1926-11-12 12:00:00 TS 6.84932 58.2652 main 771 728 _________OP___ -1 6.90000 58.0000 TC 64 6.79863 58.5303 1 11 277
1926312N06072 1926 57 NI AS NOT_NAMED 1926-11-12 15:00:00 TS 6.93127 57.7000 main 728 674 _________PO___ -1 6.96253 57.3999 TC 64 6.90000 58.0000 4 12 281
1926312N06072 1926 57 NI AS NOT_NAMED 1926-11-12 18:00:00 TS 7.08267 57.0959 main 674 623 _________OP___ -1 7.10000 56.8000 TC 64 7.06534 57.3917 4 13 289
1926312N06072 1926 57 NI AS NOT_NAMED 1926-11-12 21:00:00 TS 7.33154 56.5029 main 623 570 _________PP___ -1 7.39253 56.2252 TC 64 7.27054 56.7807 4 12 296
1926312N06072 1926 57 NI AS NOT_NAMED 1926-11-13 00:00:00 TS 7.59520 56.0146 main 570 537 _________OP___ -1 7.70000 55.8000 TC 64 7.49039 56.2292 4 9 300
1926312N06072 1926 57 NI AS NOT_NAMED 1926-11-13 03:00:00 TS 7.78620 55.7199 main 537 523 _________PO___ -1 7.87239 55.6399 TC 56 7.70000 55.8000 4 5 309
1926312N06072 1926 57 NI AS NOT_NAMED 1926-11-13 06:00:00 TS 7.93602 55.5872 main 523 498 _________OP___ -1 8.00000 55.6000 TC 49 7.87203 55.5744 4 4 324
1926312N06072 1926 57 NI AS NOT_NAMED 1926-11-13 09:00:00 TS 8.09348 55.4898 main 498 484 _________PP___ -1 8.15749 55.5075 TC 41 8.02946 55.4722 4 3 330
1926312N06072 1926 57 NI AS NOT_NAMED 1926-11-13 12:00:00 TS 8.23609 55.4169 main 484 470 _________OP___ -1 8.30000 55.4000 TC 34 8.17219 55.4339 4 3 328
1926312N06072 1926 57 NI AS NOT_NAMED 1926-11-13 15:00:00 TS 8.35375 55.3250 main 459 456 _________PO___ -1 8.40751 55.2500 TC 33 8.30000 55.4000 2 3 314
1926312N06072 1926 57 NI AS NOT_NAMED 1926-11-13 18:00:00 TS 8.45108 55.1951 main 445 442 _________OP___ -1 8.50000 55.1000 TC 32 8.40217 55.2902 2 3 309
1926312N06072 1926 57 NI AS NOT_NAMED 1926-11-13 21:00:00 TS 8.54247 55.0899 main 442 428 _________PP___ -1 8.59248 55.0075 TC 31 8.49246 55.1724 2 3 311
1926312N06072 1926 57 NI AS NOT_NAMED 1926-11-14 00:00:00 TS 8.64327 54.9717 main 428 401 _________OP___ -1 8.70000 54.9000 TC 30 8.58653 55.0433 2 4 309
1926312N06072 1926 57 NI AS NOT_NAMED 1926-11-14 03:00:00 TS 8.76751 54.8038 main 401 386 _________PO___ -1 8.83502 54.7075 TC 30 8.70000 54.9000 1 4 311
1926312N06072 1926 57 NI AS NOT_NAMED 1926-11-14 06:00:00 TS 8.93276 54.6319 main 386 362 _________OP___ -1 9.00000 54.5000 TC 30 8.86553 54.7637 1 5 319
1926312N06072 1926 57 NI AS NOT_NAMED 1926-11-14 09:00:00 TS 9.12489 54.4875 main 362 337 _________PP___ -1 9.19995 54.3650 TC 30 9.04984 54.6100 1 5 321
1926312N06072 1926 57 NI AS NOT_NAMED 1926-11-14 12:00:00 TS 9.31712 54.3131 main 337 312 _________OP___ -1 9.40000 54.2000 TC 30 9.23423 54.4262 1 6 311
1926312N06072 1926 57 NI AS NOT_NAMED 1926-11-14 15:00:00 TS 9.48625 54.0650 main 312 277 _________PO___ -1 9.57250 53.9300 TC 30 9.40000 54.2000 1 6 299
1926312N06072 1926 57 NI AS NOT_NAMED 1926-11-14 18:00:00 TS 9.60460 53.7847 main 277 243 _________OP___ -1 9.70000 53.6000 TC 30 9.53304 53.9232 1 6 289
1926312N06072 1926 57 NI AS NOT_NAMED 1926-11-14 21:00:00 TS 9.68977 53.4641 main 243 212 _________PP___ -1 9.76756 53.2525 TC 30 9.63791 53.6051 1 7 283
1926312N06072 1926 57 NI AS NOT_NAMED 1926-11-15 00:00:00 TS 9.74920 53.1396 main 202 177 _________OP___ -1 9.80000 52.9000 TC 30 9.72380 53.2595 1 6 281
1926312N06072 1926 57 NI AS NOT_NAMED 1926-11-15 03:00:00 NR 9.80000 52.9000 main 177 __________O___ -1 TC 9.80000 52.9000 1 5 282

About IBTrACS Database

This database is a web-friendly format of International Best Track Archive for Climate Stewardship (IBTrACS), a global best track data archive curated by NOAA dating back to 1842.

Updated: 2021-11-26